Time;durP1;ratioP1;P1;durP2;ratioP2;P2;SDS_P1;SDS_P2;PMS_P1;PMS_P2;Temp;Humidity;BMP_temperature;BMP_pressure;BME280_temperature;BME280_humidity;BME280_pressure;Samples;Min_cycle;Max_cycle;Signal;HPM_P1;HPM_P2
2022/06/20 00:00:42;;;;;;;8.17;4.53;;;25.20;81.50;;;26.06;nan;99816.41;4970976;28;20646;-66
2022/06/20 00:03:35;;;;;;;6.90;4.20;;;25.20;81.30;;;26.10;nan;99814.13;4969037;28;20654;-66
2022/06/20 00:06:02;;;;;;;6.63;4.80;;;25.20;81.00;;;26.09;nan;99812.47;4987728;28;20624;-63
2022/06/20 00:08:30;;;;;;;12.47;4.23;;;25.30;81.00;;;26.10;nan;99819.47;4952947;28;21153;-63
2022/06/20 00:10:57;;;;;;;5.53;4.07;;;25.30;81.00;;;26.06;nan;99813.75;4967439;28;20671;-65
2022/06/20 00:13:34;;;;;;;8.27;4.50;;;25.20;81.10;;;26.07;nan;99810.00;4953271;28;21196;-65
2022/06/20 00:16:02;;;;;;;6.70;4.50;;;25.20;81.30;;;26.04;nan;99805.13;4951596;29;20638;-64
2022/06/20 00:18:31;;;;;;;9.70;4.60;;;25.20;81.10;;;25.97;nan;99800.94;4953823;28;21031;-63
2022/06/20 00:20:58;;;;;;;9.97;4.23;;;25.10;80.90;;;25.90;nan;99802.88;4954201;28;20664;-64
2022/06/20 00:23:25;;;;;;;10.30;4.90;;;25.10;81.20;;;25.77;nan;99793.19;4954327;28;20631;-65
2022/06/20 00:25:52;;;;;;;4.97;3.40;;;25.00;81.50;;;25.81;nan;99796.25;4938171;28;20631;-66
2022/06/20 00:28:19;;;;;;;6.37;3.73;;;25.00;81.40;;;25.80;nan;99798.09;4966614;28;20659;-65
2022/06/20 00:30:47;;;;;;;4.40;3.80;;;25.00;81.70;;;25.81;nan;99798.94;4962163;28;20638;-63
2022/06/20 00:33:14;;;;;;;4.60;3.30;;;25.00;81.70;;;25.78;nan;99788.69;4958055;28;20694;-65
2022/06/20 00:35:41;;;;;;;10.73;3.90;;;25.00;81.60;;;25.79;nan;99783.09;4951797;28;20628;-63
2022/06/20 00:38:17;;;;;;;7.23;4.33;;;25.00;81.70;;;25.71;nan;99779.94;4955547;28;20678;-64
2022/06/20 00:40:49;;;;;;;4.33;3.73;;;25.00;82.00;;;25.68;nan;99789.25;4970792;28;20631;-65
2022/06/20 00:43:39;;;;;;;7.50;4.10;;;24.80;82.40;;;25.65;nan;99784.34;4969056;28;20643;-63
2022/06/20 00:46:15;;;;;;;7.90;4.30;;;24.80;82.90;;;25.66;nan;99777.16;4972308;28;20627;-65
2022/06/20 00:49:03;;;;;;;6.27;4.10;;;24.80;82.80;;;25.66;nan;99772.59;4968857;28;20615;-65
2022/06/20 00:52:13;;;;;;;8.00;4.47;;;24.80;82.70;;;25.70;nan;99773.81;4952316;28;20639;-64
2022/06/20 00:55:05;;;;;;;8.83;4.53;;;24.80;82.80;;;25.65;nan;99779.00;4935431;29;21010;-65
2022/06/20 00:57:43;;;;;;;4.40;4.00;;;24.90;82.60;;;25.61;nan;99769.00;4960739;28;20671;-64
2022/06/20 01:00:19;;;;;;;5.00;3.93;;;24.70;83.70;;;25.50;nan;99767.94;4954169;28;20638;-65
2022/06/20 01:02:52;;;;;;;8.43;3.70;;;24.60;84.70;;;25.39;nan;99779.34;4950755;28;20659;-65
2022/06/20 01:05:54;;;;;;;6.33;4.37;;;24.50;85.40;;;25.31;nan;99790.34;4950638;29;20623;-65
2022/06/20 01:08:38;;;;;;;8.30;3.87;;;24.40;85.90;;;25.09;nan;99806.03;4957383;28;20638;-64
2022/06/20 01:11:22;;;;;;;11.90;4.83;;;24.30;86.90;;;24.92;nan;99788.97;4971309;28;20623;-63
2022/06/20 01:13:50;;;;;;;8.63;5.00;;;24.10;87.70;;;24.89;nan;99796.63;4956957;28;20636;-64
2022/06/20 01:16:24;;;;;;;6.10;3.97;;;24.10;89.00;;;24.83;nan;99800.97;4970039;28;21055;-64
2022/06/20 01:18:52;;;;;;;4.33;3.93;;;24.00;88.20;;;24.76;nan;99820.78;4970404;28;21179;-65
2022/06/20 01:21:35;;;;;;;5.33;4.07;;;23.90;88.70;;;24.70;nan;99821.63;4952573;28;20690;-64
2022/06/20 01:24:20;;;;;;;6.17;4.37;;;23.90;89.40;;;24.65;nan;99831.13;4951616;28;20624;-65
2022/06/20 01:27:11;;;;;;;8.60;4.33;;;23.80;90.00;;;24.63;nan;99851.03;4962014;28;20677;-64
2022/06/20 01:29:38;;;;;;;4.07;3.67;;;23.80;90.30;;;24.41;nan;99847.94;4968786;28;20647;-65
2022/06/20 01:32:06;;;;;;;7.63;4.87;;;23.60;90.60;;;24.41;nan;99847.94;4970633;28;20643;-64
2022/06/20 01:34:34;;;;;;;10.77;5.10;;;23.60;90.90;;;24.33;nan;99858.06;4969911;28;21063;-63
2022/06/20 01:37:26;;;;;;;8.97;5.10;;;23.60;90.80;;;24.23;nan;99874.56;4969728;28;20731;-66
2022/06/20 01:40:05;;;;;;;10.03;4.50;;;23.50;90.80;;;24.11;nan;99881.59;4969892;28;21199;-64
2022/06/20 01:42:34;;;;;;;9.43;4.17;;;23.40;91.00;;;24.16;nan;99884.44;4970099;28;20679;-64
2022/06/20 01:45:04;;;;;;;5.60;4.20;;;23.50;90.90;;;24.13;nan;99900.84;4951691;28;20636;-65
2022/06/20 01:47:32;;;;;;;5.87;4.47;;;23.50;90.80;;;24.14;nan;99931.00;4951469;28;20776;-63
2022/06/20 01:50:05;;;;;;;11.20;4.10;;;23.50;91.00;;;24.03;nan;99983.09;4966774;28;20635;-65
2022/06/20 01:52:39;;;;;;;9.00;4.23;;;23.30;90.80;;;23.86;nan;99964.13;4962149;28;20628;-66
2022/06/20 01:55:12;;;;;;;9.47;4.23;;;23.20;91.10;;;23.87;nan;99948.97;4952540;28;21156;-65
2022/06/20 01:57:43;;;;;;;6.40;4.17;;;23.10;91.30;;;23.90;nan;99961.84;4936804;29;20663;-67
2022/06/20 02:00:19;;;;;;;7.37;3.93;;;23.20;90.90;;;23.90;nan;99983.97;4951597;29;20636;-66
2022/06/20 02:03:00;;;;;;;10.87;4.53;;;23.20;91.00;;;23.76;nan;99974.41;4950500;28;20710;-66
2022/06/20 02:05:31;;;;;;;9.93;4.60;;;23.10;91.50;;;23.61;nan;99989.84;4951293;29;20620;-65
2022/06/20 02:08:03;;;;;;;9.23;4.33;;;22.90;91.60;;;23.48;nan;100010.34;4934798;29;20780;-64
2022/06/20 02:10:46;;;;;;;7.37;3.80;;;22.90;91.80;;;23.02;nan;100007.72;4951308;29;20693;-64
2022/06/20 02:13:14;;;;;;;12.63;4.00;;;22.50;92.10;;;22.90;nan;100010.16;4953270;28;20639;-64
2022/06/20 02:15:41;;;;;;;11.30;3.63;;;22.40;92.10;;;22.59;nan;100009.94;4971255;28;20628;-65
2022/06/20 02:18:09;;;;;;;6.13;3.20;;;22.10;92.50;;;22.54;nan;100006.22;4974959;28;20671;-64
2022/06/20 02:20:45;;;;;;;4.47;2.93;;;22.00;92.80;;;22.42;nan;100008.66;4974537;28;20639;-65
2022/06/20 02:23:24;;;;;;;9.33;4.00;;;21.90;92.90;;;22.19;nan;100019.63;4971894;28;20685;-64
2022/06/20 02:25:53;;;;;;;10.37;3.93;;;21.60;93.20;;;22.16;nan;100027.19;4974053;28;20614;-64
2022/06/20 02:28:31;;;;;;;6.43;3.03;;;21.60;93.40;;;22.10;nan;100018.19;4967486;28;21243;-64
2022/06/20 02:30:58;;;;;;;5.30;2.80;;;21.50;93.70;;;22.02;nan;100012.22;4954986;28;20628;-64
2022/06/20 02:33:29;;;;;;;7.10;3.53;;;21.40;93.90;;;22.05;nan;100020.59;4954925;28;20632;-64
2022/06/20 02:36:02;;;;;;;7.50;3.50;;;21.40;94.00;;;22.14;nan;99986.72;4954863;29;20631;-64
2022/06/20 02:38:29;;;;;;;7.90;3.60;;;21.50;94.00;;;22.25;nan;100013.50;4959578;28;20639;-64
2022/06/20 02:40:58;;;;;;;8.30;3.90;;;21.60;93.50;;;22.02;nan;100010.38;4974326;28;21187;-64
2022/06/20 02:43:36;;;;;;;12.53;4.00;;;21.40;94.00;;;22.09;nan;99982.00;4968563;28;20998;-64
2022/06/20 02:46:10;;;;;;;5.60;3.00;;;21.50;94.10;;;22.03;nan;100000.56;4952650;29;20631;-65
2022/06/20 02:48:42;;;;;;;9.23;3.73;;;21.40;94.30;;;22.02;nan;99993.63;4957844;28;21277;-65
2022/06/20 02:51:15;;;;;;;5.47;3.40;;;21.40;94.50;;;21.89;nan;99990.91;4972231;28;20638;-64
2022/06/20 02:53:50;;;;;;;4.60;2.87;;;21.30;94.90;;;21.81;nan;99991.03;4968991;28;21017;-66
2022/06/20 02:56:21;;;;;;;8.07;4.30;;;21.20;95.30;;;21.86;nan;99970.06;4954397;29;20659;-64
2022/06/20 02:58:55;;;;;;;9.60;3.70;;;21.20;95.50;;;21.99;nan;99962.13;4970630;28;20653;-64
2022/06/20 03:01:34;;;;;;;7.40;3.87;;;21.30;95.20;;;22.18;nan;99961.38;4972269;28;20629;-64
2022/06/20 03:04:02;;;;;;;11.30;4.60;;;21.50;95.00;;;22.13;nan;99947.84;4966397;28;20636;-64
2022/06/20 03:06:37;;;;;;;6.90;3.80;;;21.50;95.00;;;22.27;nan;99949.53;4953741;29;20652;-64
2022/06/20 03:09:05;;;;;;;5.13;3.63;;;21.60;95.00;;;22.21;nan;99960.97;4957091;28;21027;-64
2022/06/20 03:11:37;;;;;;;7.00;3.63;;;21.60;94.90;;;22.32;nan;99947.06;4967245;28;20966;-64
2022/06/20 03:14:08;;;;;;;4.90;2.80;;;21.60;94.90;;;22.24;nan;99926.00;4971458;28;21258;-64
2022/06/20 03:16:35;;;;;;;7.80;3.90;;;21.60;95.00;;;22.15;nan;99929.88;4972498;28;21044;-64
2022/06/20 03:19:03;;;;;;;2.67;2.40;;;21.50;95.30;;;22.15;nan;99913.94;4965112;28;21188;-64
2022/06/20 03:21:37;;;;;;;8.10;3.30;;;21.50;95.30;;;22.12;nan;99915.19;4960991;28;20644;-64
2022/06/20 03:24:05;;;;;;;4.83;3.30;;;21.50;95.60;;;22.18;nan;99932.97;4971761;28;20635;-66
2022/06/20 03:26:32;;;;;;;9.97;4.43;;;21.50;95.60;;;22.35;nan;99941.38;4969352;28;20674;-64
2022/06/20 03:29:00;;;;;;;3.20;3.00;;;21.70;95.40;;;22.39;nan;99942.59;4967702;28;20643;-63
2022/06/20 03:31:27;;;;;;;3.27;2.93;;;21.70;95.20;;;22.39;nan;99956.72;4962732;28;21210;-63
2022/06/20 03:33:55;;;;;;;4.83;2.80;;;21.70;95.20;;;22.38;nan;99952.41;4967583;28;21226;-64
2022/06/20 03:36:27;;;;;;;3.37;3.17;;;21.60;95.20;;;22.35;nan;99944.03;4952347;28;20700;-64
2022/06/20 03:38:55;;;;;;;2.60;1.73;;;21.70;95.20;;;22.25;nan;99956.91;4971878;28;20643;-64
2022/06/20 03:41:26;;;;;;;2.33;2.13;;;21.60;95.10;;;22.38;nan;99972.88;4973470;28;20631;-65
2022/06/20 03:44:18;;;;;;;3.07;2.60;;;21.60;95.10;;;22.36;nan;99972.22;4972336;28;20667;-65
2022/06/20 03:47:20;;;;;;;4.87;2.70;;;21.70;95.00;;;22.50;nan;99979.22;4966483;28;20659;-64
2022/06/20 03:50:03;;;;;;;3.60;3.10;;;21.70;95.20;;;22.48;nan;99981.25;4971878;28;20635;-63
2022/06/20 03:52:57;;;;;;;4.80;3.17;;;21.80;94.90;;;22.52;nan;99985.16;4971082;28;20707;-64
2022/06/20 03:55:53;;;;;;;7.67;3.20;;;21.80;95.00;;;22.61;nan;99989.28;4961682;28;20627;-64
2022/06/20 03:58:32;;;;;;;3.10;2.80;;;21.90;94.70;;;22.69;nan;99994.41;4966971;28;21225;-64
2022/06/20 04:01:13;;;;;;;3.73;2.90;;;21.90;94.60;;;22.75;nan;99988.25;4953306;28;20624;-62
2022/06/20 04:03:46;;;;;;;5.43;3.10;;;22.00;94.80;;;22.83;nan;99977.41;4954070;28;20686;-62
2022/06/20 04:06:31;;;;;;;3.73;3.40;;;22.10;94.50;;;22.88;nan;99974.97;4959559;28;20663;-62
2022/06/20 04:12:18;;;;;;;3.23;2.93;;;22.20;94.40;;;23.07;nan;99963.50;4952744;28;20636;-63
2022/06/20 04:14:58;;;;;;;6.23;2.77;;;22.40;93.50;;;23.22;nan;99955.28;4967671;28;20639;-62
2022/06/20 04:20:53;;;;;;;4.10;2.70;;;22.70;93.10;;;23.67;nan;99958.88;4953420;28;21208;-63
2022/06/20 04:23:46;;;;;;;5.33;3.13;;;23.00;92.00;;;23.86;nan;99952.63;4951978;29;20672;-63
2022/06/20 04:26:26;;;;;;;4.63;3.03;;;23.20;91.90;;;24.07;nan;99959.53;4953954;28;21282;-63
2022/06/20 04:29:09;;;;;;;3.40;3.10;;;23.40;91.60;;;24.32;nan;99965.75;4956590;28;20639;-63
2022/06/20 04:31:44;;;;;;;4.47;3.13;;;23.70;90.90;;;24.43;nan;99962.38;4952769;29;20627;-63
2022/06/20 04:34:39;;;;;;;6.40;2.80;;;23.80;90.10;;;24.45;nan;99974.47;4952524;28;20627;-63
2022/06/20 04:37:33;;;;;;;3.20;2.80;;;23.80;90.10;;;24.29;nan;99960.84;4953703;28;21261;-63
2022/06/20 04:40:15;;;;;;;4.67;3.47;;;23.60;90.50;;;24.17;nan;99960.69;4967324;28;20651;-63
2022/06/20 04:42:50;;;;;;;4.20;2.80;;;23.50;90.30;;;24.21;nan;99961.94;4970106;28;21246;-62
2022/06/20 04:45:26;;;;;;;7.13;2.97;;;23.50;90.50;;;24.19;nan;99974.63;4962765;28;21080;-63
2022/06/20 04:48:04;;;;;;;4.17;2.90;;;23.50;90.50;;;24.17;nan;99986.56;5042431;22;20738;-67
2022/06/20 04:50:33;;;;;;;2.83;2.40;;;23.40;90.70;;;24.08;nan;99988.66;4989689;28;20625;-65
2022/06/20 04:53:08;;;;;;;3.03;2.83;;;23.30;91.00;;;24.11;nan;99995.38;4990929;28;20626;-65
2022/06/20 04:55:46;;;;;;;4.70;2.77;;;23.30;91.50;;;24.13;nan;100004.00;5007011;28;20636;-65
2022/06/20 04:58:19;;;;;;;3.57;2.83;;;23.40;91.70;;;24.22;nan;100008.88;4989846;28;20677;-66
2022/06/20 05:00:50;;;;;;;4.63;3.40;;;23.50;91.70;;;24.23;nan;100010.50;4988930;28;20638;-65
2022/06/20 05:03:31;;;;;;;9.37;3.40;;;23.50;91.80;;;24.16;nan;100011.56;4987847;28;21310;-65
2022/06/20 05:06:01;;;;;;;8.27;3.37;;;23.40;91.80;;;24.09;nan;100011.59;4983600;28;20622;-65
2022/06/20 05:08:41;;;;;;;6.73;3.80;;;23.30;92.10;;;24.02;nan;100015.28;4978955;28;21063;-65
2022/06/20 05:11:33;;;;;;;3.30;3.00;;;23.30;92.20;;;23.87;nan;100028.88;4971700;28;20626;-66
2022/06/20 05:14:23;;;;;;;3.67;3.27;;;23.10;92.50;;;23.68;nan;100032.44;4987944;28;20643;-65
2022/06/20 05:16:56;;;;;;;4.00;3.27;;;23.00;92.80;;;23.62;nan;100047.38;4972463;28;20659;-66
2022/06/20 05:19:31;;;;;;;6.60;2.90;;;22.90;93.40;;;23.66;nan;100037.94;4971293;28;21187;-67
2022/06/20 05:22:03;;;;;;;6.57;3.60;;;22.90;93.40;;;23.54;nan;100044.13;4982984;28;20645;-66
2022/06/20 05:24:36;;;;;;;4.53;3.50;;;22.90;93.40;;;23.49;nan;100049.28;4990011;28;20629;-66
2022/06/20 05:27:19;;;;;;;4.87;3.03;;;22.90;93.70;;;23.50;nan;100057.03;4988377;28;20712;-65
2022/06/20 05:29:47;;;;;;;4.20;3.00;;;22.80;93.60;;;23.63;nan;100059.69;5005847;28;21031;-66
2022/06/20 05:32:27;;;;;;;10.30;3.47;;;22.90;93.50;;;23.73;nan;100069.88;4990209;28;20968;-66
2022/06/20 05:35:15;;;;;;;5.93;3.20;;;23.00;93.40;;;23.80;nan;100084.03;4991261;28;20637;-65
2022/06/20 05:38:12;;;;;;;9.73;3.33;;;23.10;93.20;;;23.89;nan;100093.44;4989971;28;21440;-64
2022/06/20 05:40:54;;;;;;;4.13;3.10;;;23.20;93.00;;;24.02;nan;100096.06;4980817;28;20639;-66
2022/06/20 05:43:30;;;;;;;4.13;2.63;;;23.30;92.80;;;24.06;nan;100099.97;4986916;28;21277;-66
2022/06/20 05:46:07;;;;;;;3.30;2.93;;;23.40;92.30;;;23.97;nan;100092.38;4988940;28;20653;-66
2022/06/20 05:48:43;;;;;;;7.40;3.53;;;23.30;92.20;;;23.81;nan;100106.97;4991945;28;20661;-66
2022/06/20 05:51:16;;;;;;;5.43;2.93;;;23.20;92.40;;;23.78;nan;100102.88;4993175;28;20633;-66
2022/06/20 05:53:46;;;;;;;12.97;3.50;;;23.10;92.50;;;23.57;nan;100096.97;4993196;28;20634;-66
2022/06/20 05:56:37;;;;;;;8.37;3.40;;;23.00;92.40;;;23.30;nan;100085.47;4993587;28;20645;-66
2022/06/20 05:59:05;;;;;;;3.50;3.20;;;22.70;92.40;;;;;;4991384;28;20700;-66
2022/06/20 06:01:38;;;;;;;3.47;3.17;;;22.60;92.80;;;23.39;nan;100078.97;4994054;28;21429;-66
2022/06/20 06:04:11;;;;;;;7.00;3.37;;;22.70;93.20;;;23.47;nan;100149.84;5008635;28;20669;-66
2022/06/20 06:06:46;;;;;;;5.70;3.17;;;22.80;93.10;;;23.55;nan;100237.50;4993276;28;20630;-66
2022/06/20 06:09:40;;;;;;;10.13;3.27;;;22.90;92.90;;;23.52;nan;100163.34;4981964;28;20631;-67
2022/06/20 06:12:22;;;;;;;9.80;3.87;;;22.90;92.90;;;23.09;nan;100133.59;4986133;28;21192;-68
2022/06/20 06:15:10;;;;;;;7.50;2.97;;;22.50;97.90;;;23.02;nan;100183.31;5008812;28;20630;-67
2022/06/20 06:17:58;;;;;;;8.97;4.20;;;22.40;98.30;;;23.01;nan;100139.09;4993260;28;20662;-67
2022/06/20 06:20:28;;;;;;;5.00;4.00;;;22.30;99.90;;;22.83;nan;100137.00;4992646;28;20634;-67
2022/06/20 06:23:03;;;;;;;6.77;4.87;;;22.30;99.90;;;22.66;nan;100126.97;5007476;28;20670;-68
2022/06/20 06:25:41;;;;;;;5.90;4.40;;;22.10;99.90;;;22.78;nan;100125.34;4990393;28;20621;-65
2022/06/20 06:28:13;;;;;;;5.90;4.40;;;22.10;99.90;;;22.99;nan;100104.72;4984177;28;21043;-66
2022/06/20 06:31:03;;;;;;;9.03;5.33;;;22.40;99.90;;;23.45;nan;100109.25;4992991;28;20625;-66
2022/06/20 06:33:39;;;;;;;9.37;4.90;;;22.80;99.90;;;23.80;nan;100126.66;4974177;28;20635;-65
2022/06/20 06:36:20;;;;;;;7.23;4.90;;;23.20;99.90;;;24.01;nan;100122.91;4973138;28;20630;-65
2022/06/20 06:38:59;;;;;;;6.30;5.23;;;23.40;99.90;;;24.29;nan;100128.78;4983165;28;20670;-65
2022/06/20 06:41:41;;;;;;;7.93;4.60;;;23.70;99.70;;;24.49;nan;100125.00;4993629;28;21010;-65
2022/06/20 06:44:33;;;;;;;7.23;4.57;;;23.90;99.30;;;24.64;nan;100152.22;4992207;28;21141;-65
2022/06/20 06:47:02;;;;;;;7.70;4.50;;;24.00;99.80;;;24.70;nan;100166.59;4991708;28;20640;-65
2022/06/20 06:49:46;;;;;;;8.00;4.23;;;24.10;99.30;;;24.97;nan;100175.28;4990317;28;20634;-65
2022/06/20 06:52:32;;;;;;;6.13;3.30;;;24.20;99.90;;;25.54;nan;100155.59;4998883;28;20661;-63
2022/06/20 06:55:18;;;;;;;8.30;3.47;;;24.90;98.80;;;26.43;nan;100167.47;4972911;28;20631;-62
2022/06/20 06:57:50;;;;;;;6.73;4.47;;;25.70;96.60;;;26.81;nan;100165.34;4990994;28;21221;-63
2022/06/20 07:00:24;;;;;;;6.80;3.97;;;26.20;95.50;;;27.32;nan;100180.06;4975057;28;20618;-63
2022/06/20 07:02:59;;;;;;;4.20;3.60;;;26.70;94.60;;;28.32;nan;100165.56;4986375;28;20662;-63
2022/06/20 07:05:41;;;;;;;8.40;3.80;;;27.70;91.90;;;28.50;nan;100154.66;4972162;28;21383;-63
2022/06/20 07:08:40;;;;;;;6.30;4.20;;;27.90;89.60;;;28.02;nan;100173.78;4972442;28;20650;-64
2022/06/20 07:11:24;;;;;;;6.67;3.80;;;27.40;90.90;;;27.77;nan;100165.09;4973332;28;20879;-65
2022/06/20 07:13:54;;;;;;;4.60;3.70;;;27.10;90.60;;;27.58;nan;100183.16;4979842;28;21012;-65
2022/06/20 07:16:34;;;;;;;6.90;3.77;;;26.90;90.40;;;27.42;nan;100141.00;4979463;28;20647;-66
2022/06/20 07:19:04;;;;;;;13.57;4.50;;;26.80;90.00;;;27.45;nan;100129.00;4972897;28;20635;-64
2022/06/20 07:21:33;;;;;;;5.00;3.37;;;26.70;90.10;;;27.14;nan;100132.75;4991115;28;20645;-65
2022/06/20 07:24:06;;;;;;;4.70;4.03;;;26.60;90.50;;;26.76;nan;100129.63;4991066;28;20681;-65
2022/06/20 07:27:06;;;;;;;6.30;4.33;;;26.20;90.80;;;26.19;nan;100122.91;4993193;28;20669;-65
2022/06/20 07:30:12;;;;;;;6.30;4.30;;;25.60;91.90;;;25.51;nan;100154.19;4991115;28;20661;-65
2022/06/20 07:32:55;;;;;;;12.33;4.70;;;24.80;94.10;;;25.38;nan;100173.75;4975394;28;20623;-64
2022/06/20 07:35:49;;;;;;;4.60;4.20;;;24.70;95.80;;;25.38;nan;100178.31;4990146;28;20646;-64
2022/06/20 07:38:25;;;;;;;6.70;4.30;;;24.70;97.90;;;25.29;nan;100190.28;4991429;28;20661;-65
2022/06/20 07:41:13;;;;;;;9.10;4.53;;;24.60;98.50;;;25.07;nan;100195.13;4989616;28;20646;-65
2022/06/20 07:44:23;;;;;;;7.43;4.20;;;24.40;99.50;;;24.99;nan;100190.06;4974858;28;20669;-65
2022/06/20 07:46:50;;;;;;;6.30;4.00;;;24.30;99.90;;;24.93;nan;100203.44;4986108;28;20635;-65
2022/06/20 07:49:33;;;;;;;4.43;3.73;;;24.20;98.90;;;24.84;nan;100194.03;4991441;28;20697;-65
2022/06/20 07:52:10;;;;;;;6.10;3.80;;;24.10;99.90;;;24.59;nan;100180.59;4991521;28;21162;-65
2022/06/20 07:54:45;;;;;;;10.40;4.20;;;23.90;99.90;;;24.32;nan;100150.50;4986751;28;21206;-66
2022/06/20 07:57:22;;;;;;;4.03;3.50;;;23.60;99.90;;;23.92;nan;100152.44;4972928;28;20642;-64
2022/06/20 08:00:07;;;;;;;7.50;4.50;;;23.20;99.90;;;24.04;nan;100171.31;4978066;28;21198;-65
2022/06/20 08:02:40;;;;;;;10.30;5.60;;;23.20;99.90;;;24.54;nan;100159.88;4989653;28;20646;-65
2022/06/20 08:05:16;;;;;;;5.60;3.97;;;23.80;99.90;;;25.00;nan;100145.50;4993446;28;20685;-65
2022/06/20 08:08:25;;;;;;;5.23;4.73;;;24.40;98.80;;;25.07;nan;100139.06;4982304;28;20673;-66
2022/06/20 08:11:39;;;;;;;7.53;5.20;;;24.40;97.90;;;24.99;nan;100136.69;4990077;28;20622;-65
2022/06/20 08:14:03;;;;;;;12.80;5.73;;;24.30;99.10;;;25.05;nan;100143.00;4990053;28;20998;-65
2022/06/20 08:16:31;;;;;;;7.07;4.17;;;24.40;99.00;;;25.04;nan;100136.03;4990038;28;20641;-65
2022/06/20 08:18:59;;;;;;;10.10;5.00;;;24.40;98.80;;;24.94;nan;100143.69;4989956;28;20638;-64
2022/06/20 08:21:34;;;;;;;6.17;5.43;;;24.20;98.00;;;24.94;nan;100138.34;4987139;28;20690;-64
2022/06/20 08:24:10;;;;;;;5.70;5.20;;;24.20;99.20;;;24.87;nan;100129.56;4972275;28;20674;-66
2022/06/20 08:26:58;;;;;;;5.30;4.83;;;24.20;99.00;;;24.82;nan;100130.22;4979709;28;20635;-64
2022/06/20 08:29:40;;;;;;;9.60;6.20;;;24.10;99.30;;;24.80;nan;100134.94;4984751;28;20630;-65
2022/06/20 08:32:36;;;;;;;7.87;5.67;;;24.10;99.30;;;24.89;nan;100151.53;4978649;28;20635;-64
2022/06/20 08:35:43;;;;;;;7.40;5.60;;;24.10;99.60;;;24.99;nan;100160.69;4970563;28;20654;-65
2022/06/20 08:39:03;;;;;;;11.60;6.03;;;24.30;99.80;;;25.20;nan;100162.19;4985446;28;20667;-65
2022/06/20 08:42:28;;;;;;;5.40;4.93;;;24.40;99.40;;;25.53;nan;100184.19;4985137;28;20626;-64
2022/06/20 08:45:19;;;;;;;5.97;4.70;;;24.80;98.50;;;26.05;nan;100202.41;4981336;28;21080;-65
2022/06/20 08:48:28;;;;;;;10.17;5.30;;;25.30;98.00;;;27.07;nan;100206.22;4991575;28;20679;-65
2022/06/20 08:51:13;;;;;;;5.10;4.60;;;26.60;95.80;;;28.19;nan;100200.69;4991553;28;20638;-64
2022/06/20 08:54:22;;;;;;;5.07;4.50;;;27.40;93.40;;;31.26;nan;100192.22;4990073;28;20646;-65
2022/06/20 08:57:23;;;;;;;6.90;4.20;;;30.30;87.00;;;33.95;nan;100199.28;4979559;28;20630;-65
2022/06/20 09:00:10;;;;;;;5.30;3.70;;;33.20;75.10;;;35.91;nan;100200.91;4990325;28;21213;-66
2022/06/20 09:03:46;;;;;;;7.47;4.40;;;35.60;64.50;;;34.50;nan;100226.25;4988012;28;20634;-66
2022/06/20 09:06:43;;;;;;;5.30;3.77;;;34.40;62.70;;;32.86;nan;100275.41;4982562;28;20642;-65
2022/06/20 09:10:17;;;;;;;6.60;4.60;;;32.60;66.00;;;30.68;nan;100271.03;4970523;28;20626;-65
2022/06/20 09:13:05;;;;;;;6.20;4.67;;;30.30;70.40;;;29.49;nan;100276.94;4976463;28;20709;-65
2022/06/20 09:15:37;;;;;;;7.37;5.50;;;28.90;75.90;;;28.79;nan;100287.09;4971178;28;20616;-65
2022/06/20 09:18:19;;;;;;;7.97;5.03;;;28.10;79.20;;;27.94;nan;100296.63;4982608;28;20662;-64
2022/06/20 09:21:05;;;;;;;7.90;5.40;;;27.30;85.00;;;27.89;nan;100308.06;4989768;28;20637;-65
2022/06/20 09:23:55;;;;;;;8.37;5.80;;;27.30;87.50;;;27.59;nan;100312.63;4989684;28;20662;-65
2022/06/20 09:26:52;;;;;;;8.07;5.50;;;26.90;87.70;;;27.04;nan;100319.94;4989421;28;21217;-65
2022/06/20 09:29:34;;;;;;;9.23;5.40;;;26.50;89.40;;;26.65;nan;100315.00;4990505;28;20639;-65
2022/06/20 09:32:54;;;;;;;7.77;5.07;;;26.00;91.10;;;25.95;nan;100325.06;4990527;28;20626;-64
2022/06/20 09:36:01;;;;;;;5.13;3.17;;;25.40;93.70;;;25.16;nan;100346.03;4990817;28;21186;-65
2022/06/20 09:38:57;;;;;;;4.33;3.60;;;24.60;95.80;;;24.64;nan;100354.97;4972287;28;20669;-64
2022/06/20 09:41:55;;;;;;;4.20;3.80;;;23.90;98.30;;;24.06;nan;100347.84;4974669;28;20634;-64
2022/06/20 09:44:49;;;;;;;4.93;3.90;;;23.50;99.70;;;23.99;nan;100341.63;4973729;28;20744;-65
2022/06/20 09:47:52;;;;;;;4.23;3.90;;;23.30;99.90;;;24.87;nan;100345.72;4979144;28;20666;-64
2022/06/20 09:50:43;;;;;;;6.03;4.00;;;24.20;99.00;;;25.90;nan;100321.38;4990293;28;21219;-64
2022/06/20 09:53:35;;;;;;;3.90;3.60;;;25.30;97.30;;;26.32;nan;100325.22;4990780;28;20638;-65
2022/06/20 09:56:22;;;;;;;9.77;3.97;;;25.80;95.50;;;26.30;nan;100327.28;4990019;28;20666;-65
2022/06/20 09:59:11;;;;;;;4.10;3.70;;;25.80;94.70;;;26.14;nan;100339.34;4988782;28;20660;-65
2022/06/20 10:01:44;;;;;;;4.23;3.63;;;25.60;95.00;;;26.24;nan;100352.25;4990348;28;21170;-66
2022/06/20 10:04:28;;;;;;;6.50;3.70;;;25.60;95.50;;;25.56;nan;100343.19;4990645;28;20688;-65
2022/06/20 10:07:33;;;;;;;6.13;3.63;;;25.10;95.20;;;25.42;nan;100345.13;4989579;28;20681;-65
2022/06/20 10:10:34;;;;;;;3.80;3.50;;;24.80;95.90;;;25.39;nan;100357.03;4990111;28;20709;-66
2022/06/20 10:13:15;;;;;;;4.10;3.70;;;24.80;95.90;;;25.64;nan;100359.00;4977783;28;20992;-65
2022/06/20 10:15:45;;;;;;;3.47;3.27;;;25.00;95.70;;;25.40;nan;100357.84;4985377;28;21210;-65
2022/06/20 10:18:40;;;;;;;4.20;3.93;;;25.00;95.10;;;25.19;nan;100368.84;4970640;28;20733;-65
2022/06/20 10:21:37;;;;;;;3.10;2.90;;;24.70;95.90;;;24.92;nan;100377.91;4980222;28;20654;-65
2022/06/20 10:24:10;;;;;;;2.97;2.87;;;24.40;95.80;;;24.54;nan;100378.59;4974227;28;20666;-64
2022/06/20 10:27:13;;;;;;;2.63;2.43;;;24.10;96.30;;;24.48;nan;100374.06;4989013;28;20637;-65
2022/06/20 10:30:12;;;;;;;2.70;2.50;;;23.90;97.20;;;24.20;nan;100375.28;4986936;28;21054;-65
2022/06/20 10:33:06;;;;;;;2.90;2.67;;;23.60;97.70;;;23.98;nan;100379.16;4985997;28;20634;-65
2022/06/20 10:35:50;;;;;;;2.60;2.50;;;23.30;98.00;;;23.95;nan;100377.72;4992602;28;21150;-65
2022/06/20 10:38:39;;;;;;;2.27;2.17;;;23.40;97.90;;;24.09;nan;100371.41;4988507;28;20659;-65
2022/06/20 10:41:33;;;;;;;2.50;2.40;;;23.50;97.60;;;24.50;nan;100372.03;4990798;28;20642;-64
2022/06/20 10:44:25;;;;;;;6.00;2.57;;;23.80;96.70;;;25.03;nan;100374.63;4988977;28;20681;-65
2022/06/20 10:47:18;;;;;;;2.00;1.90;;;24.50;95.20;;;25.22;nan;100368.38;4990909;28;20626;-65
2022/06/20 10:50:05;;;;;;;2.47;2.27;;;24.60;94.60;;;25.48;nan;100368.31;4946027;23;20702;-63
2022/06/20 10:53:09;;;;;;;4.20;2.20;;;25.00;93.80;;;25.48;nan;100359.47;4915091;29;20673;-62
2022/06/20 10:55:59;;;;;;;2.10;2.03;;;25.10;92.90;;;25.57;nan;100339.50;4928068;29;20902;-63
2022/06/20 10:59:08;;;;;;;2.30;2.20;;;25.10;92.80;;;25.47;nan;100342.63;4916559;29;20661;-64
2022/06/20 11:02:20;;;;;;;1.80;1.70;;;25.00;92.60;;;25.54;nan;100354.09;4915590;29;20645;-65
2022/06/20 11:05:27;;;;;;;2.40;2.30;;;25.00;92.30;;;25.46;nan;100370.38;4892943;29;20688;-65
2022/06/20 11:08:40;;;;;;;2.70;2.60;;;24.90;92.80;;;25.43;nan;100370.00;4912268;29;21214;-62
2022/06/20 11:11:44;;;;;;;2.60;2.50;;;24.90;92.50;;;25.76;nan;100379.47;4912852;29;20647;-63
2022/06/20 11:14:26;;;;;;;2.70;2.60;;;25.20;91.20;;;25.61;nan;100397.63;4918030;29;20633;-63
2022/06/20 11:17:27;;;;;;;3.00;2.47;;;25.10;91.30;;;25.33;nan;100397.09;4931193;29;21018;-63
2022/06/20 11:20:21;;;;;;;2.90;2.70;;;24.80;91.10;;;25.36;nan;100399.38;4915258;29;21319;-64
2022/06/20 11:23:01;;;;;;;3.50;3.20;;;25.00;91.20;;;25.77;nan;100399.81;4915268;29;21245;-65
2022/06/20 11:26:28;;;;;;;3.10;2.97;;;25.20;91.00;;;25.55;nan;100419.03;4915722;29;20682;-62
2022/06/20 11:29:22;;;;;;;3.10;2.90;;;25.10;90.10;;;25.57;nan;100435.69;4921246;29;20674;-63
2022/06/20 11:32:05;;;;;;;3.30;3.10;;;25.00;90.40;;;25.45;nan;100456.88;4915213;29;20949;-65
2022/06/20 11:34:54;;;;;;;4.30;3.87;;;24.90;90.70;;;25.13;nan;100460.44;4904406;29;20638;-66
2022/06/20 11:37:45;;;;;;;4.70;4.30;;;24.60;91.00;;;24.89;nan;100471.75;4906959;29;20766;-65